Scottsbluff, Nebraska
Current Conditions -  °F | °C
As of 2:53 PM on Saturday 25 Oct 2014 (Local Time) from KBFF Reporting Station
Clear Clear  
Wind Chill: 76°   Ceiling: Unl
Heat Index: 76°   Visibility: 10mi
Dew Point: 40°   Wind: 14mph
Humidity: 27%   Direction: 140°SE
Pressure: 30.03"   Gusts: NA
Location:  41.86°N, 103.66°W
Report Text: KBFF 252053Z AUTO 14012KT 10SM CLR 24/04 A3003 RMK AO2 SLP144 T02440044 56032
Loading
Personal Weather Stations






























Interactive Weather Map
Tropical Storm Tracking
New forecast layout! Learn more

10-Day Weather Forecast

Advertisements
Track Severe Weather on mobile